createdAt,value
2022-10-19T00:00:04.938Z,100057.08
2022-10-19T00:01:13.315Z,100064.09
2022-10-19T00:02:15.255Z,100053.58
2022-10-19T00:03:20.721Z,100052.83
2022-10-19T00:04:21.067Z,100049.12
2022-10-19T00:05:23.035Z,100052.92
2022-10-19T00:06:31.376Z,100054.83
2022-10-19T00:07:34.370Z,100051.02
2022-10-19T00:08:37.744Z,100044.59
2022-10-19T00:09:42.929Z,100038.72
2022-10-19T00:10:45.232Z,100039.47
2022-10-19T00:11:49.620Z,100039.38
2022-10-19T00:12:51.556Z,100047.98
2022-10-19T00:13:55.665Z,100038.41
2022-10-19T00:14:57.967Z,100034.17
2022-10-19T00:16:00.244Z,100034.17
2022-10-19T00:17:02.202Z,100034.83
2022-10-19T00:18:04.193Z,100034.17
2022-10-19T00:19:09.334Z,100029.05
2022-10-19T00:20:12.082Z,100025.55
2022-10-19T00:21:16.301Z,100022.22
2022-10-19T00:22:18.228Z,100023.93
2022-10-19T00:23:20.137Z,100022.81
2022-10-19T00:24:22.052Z,100013.33
2022-10-19T00:25:23.924Z,100013.14
2022-10-19T00:26:26.426Z,100015.05
2022-10-19T00:27:28.361Z,100018.16
2022-10-19T00:28:31.010Z,100009.72
2022-10-19T00:29:33.554Z,100005.91
2022-10-19T00:30:36.896Z,100004.77
2022-10-19T00:31:40.499Z,100010.72
2022-10-19T00:32:42.730Z,100003.16
2022-10-19T00:33:45.712Z,100003.07
2022-10-19T00:34:47.980Z,100000.24
2022-10-19T00:35:51.955Z,99995.69
2022-10-19T00:36:54.168Z,100002.32
2022-10-19T00:37:56.061Z,99993.63
2022-10-19T00:38:59.548Z,99984.52
2022-10-19T00:40:01.614Z,99981.03
2022-10-19T00:41:03.739Z,99979.88
2022-10-19T00:42:05.863Z,99977.42
2022-10-19T00:44:32.830Z,99969.58
2022-10-19T00:45:34.776Z,99973.65
2022-10-19T00:46:42.514Z,99977.54
2022-10-19T00:47:46.278Z,99970.34
2022-10-19T00:49:52.002Z,99966.73
2022-10-19T00:50:57.290Z,99959.45
2022-10-19T00:52:03.093Z,99966.06
2022-10-19T00:53:05.534Z,99958.39
2022-10-19T00:54:08.697Z,99950.45
2022-10-19T00:55:11.264Z,99951.80
2022-10-19T00:56:16.308Z,99950.45
2022-10-19T00:57:18.600Z,99943.28
2022-10-19T00:58:20.793Z,99942.31
2022-10-19T00:59:24.299Z,99938.55
2022-10-19T01:00:27.213Z,99937.11
2022-10-19T01:01:30.750Z,99936.08
2022-10-19T01:02:33.532Z,99937.02
2022-10-19T01:03:35.819Z,99876.02
2022-10-19T01:04:41.480Z,99932.77
2022-10-19T01:05:43.997Z,99939.84
2022-10-19T01:06:46.145Z,99939.19
2022-10-19T01:07:48.985Z,99941.00
2022-10-19T01:08:50.895Z,99932.66
2022-10-19T01:09:54.177Z,99927.84
2022-10-19T01:11:23.396Z,99932.48
2022-10-19T01:12:57.806Z,99923.39
2022-10-19T01:14:18.891Z,99923.57
2022-10-19T01:15:33.916Z,99926.03
2022-10-19T01:16:52.035Z,99924.32
2022-10-19T01:18:18.769Z,99920.73
2022-10-19T01:19:43.105Z,99922.64
2022-10-19T01:21:10.306Z,99929.83
2022-10-19T01:22:41.784Z,99923.66
2022-10-19T01:25:49.792Z,99912.23
2022-10-19T01:27:13.696Z,99917.34
2022-10-19T01:28:34.250Z,99915.23
2022-10-19T01:30:02.968Z,99919.00
2022-10-19T01:31:08.653Z,99913.52
2022-10-19T01:32:14.338Z,99912.02
2022-10-19T01:33:52.077Z,99905.89
2022-10-19T01:35:00.619Z,99908.23
2022-10-19T01:36:09.690Z,99907.30
2022-10-19T01:37:33.877Z,99896.80
2022-10-19T01:38:55.176Z,99908.23
2022-10-19T01:40:16.274Z,99908.23
2022-10-19T01:41:52.072Z,99900.47
2022-10-19T01:43:23.958Z,99897.63
2022-10-19T01:46:03.588Z,99891.59
2022-10-19T01:47:11.980Z,99897.81
2022-10-19T01:51:10.950Z,99884.58
2022-10-19T01:52:17.017Z,99888.84
2022-10-19T01:53:20.423Z,99888.09
2022-10-19T01:54:25.125Z,99889.13
2022-10-19T01:55:28.123Z,99890.36
2022-10-19T01:56:33.328Z,99883.83
2022-10-19T01:57:39.014Z,99885.72
2022-10-19T01:58:43.744Z,99886.66
2022-10-19T01:59:48.711Z,99871.97
2022-10-19T02:00:54.035Z,99871.97
2022-10-19T02:01:58.096Z,99877.13
2022-10-19T02:03:01.370Z,99872.86
2022-10-19T02:04:04.811Z,99871.83
2022-10-19T02:05:08.323Z,99871.83
2022-10-19T02:06:12.457Z,99875.31
2022-10-19T02:07:15.712Z,99868.36
2022-10-19T02:08:33.925Z,99870.02
2022-10-19T02:09:36.331Z,99870.35
2022-10-19T02:10:41.109Z,99871.88
2022-10-19T02:11:56.158Z,99874.47
2022-10-19T02:12:58.123Z,99877.96
2022-10-19T02:14:07.126Z,99879.02
2022-10-19T02:15:12.495Z,99867.98
2022-10-19T02:16:21.224Z,99873.55
2022-10-19T02:17:29.941Z,99873.36
2022-10-19T02:18:35.699Z,99863.65
2022-10-19T02:19:38.138Z,99863.55
2022-10-19T02:20:40.144Z,99863.55
2022-10-19T02:21:42.261Z,99858.27
2022-10-19T02:22:44.702Z,99836.19
2022-10-19T02:23:48.343Z,99857.48
2022-10-19T02:24:50.694Z,99847.85
2022-10-19T02:25:54.164Z,99851.25
2022-10-19T02:26:56.785Z,99851.25
2022-10-19T02:28:00.618Z,99862.87
2022-10-19T02:29:03.003Z,99850.81
2022-10-19T02:30:06.497Z,99849.30
2022-10-19T02:31:08.825Z,99859.17
2022-10-19T02:32:11.426Z,99850.39
2022-10-19T02:33:14.971Z,99857.09
2022-10-19T02:34:23.149Z,99858.60
2022-10-19T02:35:26.009Z,99863.68
2022-10-19T02:36:28.283Z,99849.88
2022-10-19T02:37:30.434Z,99865.37
2022-10-19T02:38:33.453Z,99867.04
2022-10-19T02:39:36.837Z,99860.07
2022-10-19T02:40:42.639Z,99863.20
2022-10-19T02:41:58.867Z,99859.14
2022-10-19T02:43:07.559Z,99868.58
2022-10-19T02:44:13.388Z,99865.23
2022-10-19T02:45:27.620Z,99862.14
2022-10-19T02:48:00.922Z,99863.32
2022-10-19T02:49:05.714Z,99861.30
2022-10-19T02:50:09.922Z,99861.66
2022-10-19T02:51:33.522Z,99865.50
2022-10-19T02:52:40.281Z,99866.28
2022-10-19T02:53:42.193Z,99866.11
2022-10-19T02:54:44.770Z,99868.58
2022-10-19T02:55:48.990Z,99872.20
2022-10-19T02:56:51.382Z,99850.77
2022-10-19T02:57:53.264Z,99870.77
2022-10-19T02:58:56.044Z,99867.34
2022-10-19T02:59:58.240Z,99861.03
2022-10-19T03:01:00.458Z,99861.52
2022-10-19T03:02:02.417Z,99866.64
2022-10-19T03:03:04.602Z,99864.57
2022-10-19T03:04:06.747Z,99866.98
2022-10-19T03:05:09.477Z,99864.75
2022-10-19T03:06:12.146Z,99870.70
2022-10-19T03:07:16.518Z,99872.42
2022-10-19T03:08:18.494Z,99865.15
2022-10-19T03:09:20.549Z,99862.86
2022-10-19T03:10:23.179Z,99860.12
2022-10-19T03:11:25.649Z,99852.79
2022-10-19T03:12:27.957Z,99857.99
2022-10-19T03:13:30.073Z,99852.88
2022-10-19T03:14:32.312Z,99858.92
2022-10-19T03:15:34.249Z,99865.23
2022-10-19T03:16:36.358Z,99866.02
2022-10-19T03:17:38.624Z,99866.02
2022-10-19T03:18:40.649Z,99865.15
2022-10-19T03:19:42.822Z,99863.37
2022-10-19T03:20:44.872Z,99826.56
2022-10-19T03:21:46.796Z,99860.03
2022-10-19T03:22:49.529Z,99862.86
2022-10-19T03:23:51.546Z,99860.42
2022-10-19T03:24:53.423Z,99860.51
2022-10-19T03:25:55.330Z,99854.52
2022-10-19T03:26:59.360Z,99854.11
2022-10-19T03:28:01.855Z,99845.25
2022-10-19T03:29:04.313Z,99851.12
2022-10-19T03:30:07.879Z,99843.36
2022-10-19T03:31:09.898Z,99850.19
2022-10-19T03:32:13.726Z,99847.55
2022-10-19T03:33:18.600Z,99842.08
2022-10-19T03:34:20.718Z,99840.94
2022-10-19T03:35:22.714Z,99840.19
2022-10-19T03:36:31.096Z,99836.61
2022-10-19T03:37:33.805Z,99837.36
2022-10-19T03:38:37.311Z,99836.40
2022-10-19T03:39:39.354Z,99834.53
2022-10-19T03:40:41.868Z,99825.28
2022-10-19T03:41:45.069Z,99834.00
2022-10-19T03:42:46.974Z,99830.96
2022-10-19T03:43:51.836Z,99822.00
2022-10-19T03:44:54.146Z,99821.45
2022-10-19T03:45:56.258Z,99818.34
2022-10-19T03:46:58.239Z,99816.73
2022-10-19T03:48:00.371Z,99810.98
2022-10-19T03:49:02.980Z,99818.58
2022-10-19T03:50:06.632Z,99804.09
2022-10-19T03:51:11.950Z,99804.09
2022-10-19T03:52:13.890Z,99805.98
2022-10-19T03:53:17.840Z,99803.05
2022-10-19T03:54:22.505Z,99807.09
2022-10-19T03:55:23.977Z,99801.59
2022-10-19T03:56:28.005Z,99806.80
2022-10-19T03:57:33.340Z,99808.33
2022-10-19T03:58:36.809Z,99803.96
2022-10-19T03:59:52.539Z,99797.82
2022-10-19T04:00:54.997Z,99813.43
2022-10-19T04:01:56.912Z,99813.98
2022-10-19T04:03:02.925Z,99811.43
2022-10-19T04:05:18.260Z,99807.68
2022-10-19T04:06:28.128Z,99806.58
2022-10-19T04:07:35.456Z,99809.04
2022-10-19T04:08:37.990Z,99809.98
2022-10-19T04:09:40.375Z,99805.55
2022-10-19T04:11:00.328Z,99794.84
2022-10-19T04:12:07.195Z,99797.37
2022-10-19T04:13:17.994Z,99798.05
2022-10-19T04:14:58.056Z,99741.05
2022-10-19T04:17:09.995Z,99812.08
2022-10-19T04:18:16.191Z,99819.73
2022-10-19T04:19:20.145Z,99815.47
2022-10-19T04:20:24.659Z,99814.34
2022-10-19T04:22:42.550Z,99817.80
2022-10-19T04:23:44.449Z,99818.38
2022-10-19T04:24:46.355Z,99823.39
2022-10-19T04:25:48.267Z,99826.92
2022-10-19T04:26:52.580Z,99827.75
2022-10-19T04:27:54.541Z,99828.44
2022-10-19T04:28:58.135Z,99823.00
2022-10-19T04:30:00.183Z,99823.48
2022-10-19T04:31:03.869Z,99823.39
2022-10-19T04:32:05.953Z,99815.14
2022-10-19T04:33:07.842Z,99824.72
2022-10-19T04:34:10.686Z,99822.80
2022-10-19T04:35:12.652Z,99824.13
2022-10-19T04:36:15.763Z,99828.66
2022-10-19T04:37:17.840Z,99825.80
2022-10-19T04:38:19.783Z,99827.52
2022-10-19T04:39:21.680Z,99816.81
2022-10-19T04:40:23.763Z,99816.71
2022-10-19T04:41:25.851Z,99828.06
2022-10-19T04:42:27.819Z,99821.62
2022-10-19T04:43:29.997Z,99819.91
2022-10-19T04:44:31.898Z,99825.86
2022-10-19T04:45:34.968Z,99824.42
2022-10-19T04:46:37.181Z,99825.66
2022-10-19T04:47:39.085Z,99833.41
2022-10-19T04:48:42.194Z,99830.47
2022-10-19T04:49:44.146Z,99826.50
2022-10-19T04:50:46.221Z,99836.91
2022-10-19T04:51:48.099Z,99829.52
2022-10-19T04:52:50.489Z,99826.97
2022-10-19T04:53:54.483Z,99824.86
2022-10-19T04:54:57.168Z,99833.55
2022-10-19T04:56:07.432Z,99830.36
2022-10-19T04:57:09.356Z,99829.29
2022-10-19T04:58:11.336Z,99835.56
2022-10-19T04:59:13.267Z,99829.09
2022-10-19T05:00:16.189Z,99790.00
2022-10-19T05:01:20.687Z,99818.37
2022-10-19T05:02:22.813Z,99798.97
2022-10-19T05:03:24.783Z,99797.12
2022-10-19T05:04:26.662Z,99809.87
2022-10-19T05:05:28.568Z,99812.33
2022-10-19T05:06:31.387Z,99822.00
2022-10-19T05:07:33.817Z,99826.97
2022-10-19T05:08:36.439Z,99831.00
2022-10-19T05:09:38.319Z,99837.38
2022-10-19T05:10:44.250Z,99838.02
2022-10-19T05:11:44.763Z,99842.16
2022-10-19T05:12:46.657Z,99836.21
2022-10-19T05:13:49.319Z,99839.91
2022-10-19T05:14:51.235Z,99844.12
2022-10-19T05:15:57.156Z,99854.34
2022-10-19T05:16:59.387Z,99855.38
2022-10-19T05:18:01.258Z,99854.53
2022-10-19T05:19:03.135Z,99856.25
2022-10-19T05:20:07.174Z,99862.39
2022-10-19T05:21:13.397Z,99870.35
2022-10-19T05:22:15.447Z,99878.61
2022-10-19T05:23:17.435Z,99876.16
2022-10-19T05:24:19.402Z,99882.00
2022-10-19T05:25:21.379Z,99885.92
2022-10-19T05:26:27.783Z,99860.38
2022-10-19T05:27:29.743Z,99891.42
2022-10-19T05:28:32.059Z,99883.56
2022-10-19T05:29:34.317Z,99896.34
2022-10-19T05:30:36.426Z,99891.42
2022-10-19T05:31:40.516Z,99893.87
2022-10-19T05:32:44.546Z,99894.36
2022-10-19T05:33:52.007Z,99890.06
2022-10-19T05:34:53.990Z,99893.33
2022-10-19T05:35:55.859Z,99897.41
2022-10-19T05:37:00.526Z,99893.72
2022-10-19T05:38:02.613Z,99843.95
2022-10-19T05:39:09.067Z,99867.94
2022-10-19T05:40:11.722Z,99862.83
2022-10-19T05:41:15.468Z,99876.94
2022-10-19T05:42:17.409Z,99886.41
2022-10-19T05:43:19.280Z,99865.26
2022-10-19T05:44:23.067Z,99886.80
2022-10-19T05:45:24.983Z,99898.28
2022-10-19T05:46:29.503Z,99906.98
2022-10-19T05:47:33.705Z,99900.34
2022-10-19T05:48:36.905Z,99896.20
2022-10-19T05:49:38.929Z,99891.74
2022-10-19T05:50:44.882Z,99886.53
2022-10-19T05:51:47.927Z,99878.09
2022-10-19T05:52:49.861Z,99868.23
2022-10-19T05:53:56.162Z,99874.19
2022-10-19T05:54:58.095Z,99892.66
2022-10-19T05:56:00.638Z,99890.78
2022-10-19T05:57:02.756Z,99894.36
2022-10-19T05:58:04.635Z,99895.56
2022-10-19T05:59:08.040Z,99898.53
2022-10-19T06:00:11.447Z,99897.62
2022-10-19T06:01:14.531Z,99896.44
2022-10-19T06:02:16.543Z,99893.78
2022-10-19T06:03:19.089Z,99890.58
2022-10-19T06:04:21.219Z,99886.95
2022-10-19T06:05:23.116Z,99890.39
2022-10-19T06:06:26.240Z,99868.98
2022-10-19T06:07:28.150Z,99897.47
2022-10-19T06:08:30.299Z,99899.09
2022-10-19T06:09:32.219Z,99895.69
2022-10-19T06:10:37.136Z,99907.23
2022-10-19T06:11:40.725Z,99900.77
2022-10-19T06:12:42.916Z,99904.20
2022-10-19T06:13:47.462Z,99908.38
2022-10-19T06:14:52.138Z,99907.82
2022-10-19T06:15:54.079Z,99903.26
2022-10-19T06:16:57.898Z,99901.13
2022-10-19T06:17:59.796Z,99901.87
2022-10-19T06:19:02.144Z,99908.38
2022-10-19T06:20:07.152Z,99915.97
2022-10-19T06:21:15.516Z,99916.48
2022-10-19T06:22:17.524Z,99915.84
2022-10-19T06:23:19.710Z,99921.59
2022-10-19T06:24:21.619Z,99930.11
2022-10-19T06:25:23.980Z,99927.68
2022-10-19T06:26:27.686Z,99934.67
2022-10-19T06:27:31.739Z,99937.70
2022-10-19T06:28:35.464Z,99937.70
2022-10-19T06:29:37.477Z,99933.83
2022-10-19T06:30:40.839Z,99926.64
2022-10-19T06:31:44.944Z,99927.09
2022-10-19T06:32:46.922Z,99928.62
2022-10-19T06:33:49.632Z,99919.72
2022-10-19T06:34:56.461Z,99916.84
2022-10-19T06:35:55.852Z,99925.41
2022-10-19T06:36:57.982Z,99922.05
2022-10-19T06:38:00.260Z,99928.42
2022-10-19T06:39:02.844Z,99926.91
2022-10-19T06:40:07.192Z,99929.91
2022-10-19T06:41:11.182Z,99930.59
2022-10-19T06:42:13.128Z,99932.20
2022-10-19T06:43:15.517Z,99933.92
2022-10-19T06:44:18.014Z,99939.03
2022-10-19T06:45:20.072Z,99939.03
2022-10-19T06:46:27.854Z,99935.89
2022-10-19T06:47:30.038Z,99935.02
2022-10-19T06:48:32.382Z,99936.83
2022-10-19T06:49:34.395Z,99952.66
2022-10-19T06:50:36.776Z,99941.69
2022-10-19T06:51:38.733Z,99946.16
2022-10-19T06:52:40.638Z,99940.27
2022-10-19T06:53:44.581Z,99944.14
2022-10-19T06:54:48.365Z,99937.48
2022-10-19T06:55:50.367Z,99946.22
2022-10-19T06:56:52.653Z,99941.84
2022-10-19T06:57:58.534Z,99943.17
2022-10-19T06:59:00.513Z,99952.85
2022-10-19T07:00:04.283Z,99954.86
2022-10-19T07:01:08.448Z,99944.24
2022-10-19T07:02:11.598Z,99953.75
2022-10-19T07:03:13.505Z,99948.09
2022-10-19T07:04:17.729Z,99948.48
2022-10-19T07:05:19.811Z,99960.06
2022-10-19T07:06:23.216Z,99958.16
2022-10-19T07:07:25.228Z,99956.05
2022-10-19T07:08:29.319Z,99960.91
2022-10-19T07:09:31.228Z,99952.85
2022-10-19T07:10:33.225Z,99956.44
2022-10-19T07:11:35.113Z,99961.94
2022-10-19T07:12:37.256Z,99959.67
2022-10-19T07:13:39.262Z,99957.41
2022-10-19T07:14:41.141Z,99898.28
2022-10-19T07:15:43.316Z,99957.77
2022-10-19T07:16:45.287Z,99957.57
2022-10-19T07:17:47.428Z,99953.75
2022-10-19T07:18:51.520Z,99953.90
2022-10-19T07:19:53.485Z,99950.50
2022-10-19T07:22:12.620Z,99955.07
2022-10-19T07:23:14.555Z,99954.92
2022-10-19T07:24:17.125Z,99952.52
2022-10-19T07:25:20.452Z,99955.07
2022-10-19T07:26:25.440Z,99926.77
2022-10-19T07:27:35.272Z,99926.77
2022-10-19T07:28:35.035Z,99962.64
2022-10-19T07:29:43.107Z,99953.90
2022-10-19T07:30:45.322Z,99951.92
2022-10-19T07:31:47.655Z,99953.61
2022-10-19T07:32:49.628Z,99953.61
2022-10-19T07:33:54.505Z,99949.37
2022-10-19T07:34:56.495Z,99951.82
2022-10-19T07:36:01.166Z,99955.95
2022-10-19T07:37:03.080Z,99953.11
2022-10-19T07:38:05.281Z,99945.98
2022-10-19T07:39:07.241Z,99950.92
2022-10-19T07:40:11.300Z,99951.59
2022-10-19T07:41:19.373Z,99951.36
2022-10-19T07:43:25.333Z,99947.02
2022-10-19T07:44:27.556Z,99940.54
2022-10-19T07:45:29.728Z,99953.41
2022-10-19T07:46:33.489Z,99952.06
2022-10-19T07:47:35.850Z,99941.03
2022-10-19T07:48:38.025Z,99941.46
2022-10-19T07:49:40.265Z,99944.96
2022-10-19T07:50:46.040Z,99944.33
2022-10-19T07:51:48.208Z,99934.84
2022-10-19T07:52:56.235Z,99943.34
2022-10-19T07:53:58.721Z,99946.98
2022-10-19T07:55:00.934Z,99939.42
2022-10-19T07:56:08.552Z,99944.22
2022-10-19T07:57:11.590Z,99943.81
2022-10-19T07:58:13.905Z,99936.56
2022-10-19T07:59:15.900Z,99945.28
2022-10-19T08:00:18.755Z,99942.94
2022-10-19T08:01:23.591Z,99938.26
2022-10-19T08:02:34.993Z,99937.73
2022-10-19T08:05:42.618Z,99934.75
2022-10-19T08:06:44.996Z,99935.28
2022-10-19T08:07:47.070Z,99933.92
2022-10-19T08:08:49.724Z,99933.92
2022-10-19T08:09:54.143Z,99939.44
2022-10-19T08:10:57.482Z,99943.81
2022-10-19T08:11:59.406Z,99946.47
2022-10-19T08:13:01.332Z,99946.34
2022-10-19T08:14:07.850Z,99943.97
2022-10-19T08:15:09.987Z,99884.69
2022-10-19T08:16:28.001Z,99938.66
2022-10-19T08:17:30.095Z,99945.52
2022-10-19T08:19:33.848Z,99939.09
2022-10-19T08:20:36.176Z,99935.45
2022-10-19T08:21:40.060Z,99936.03
2022-10-19T08:22:41.981Z,99935.82
2022-10-19T08:23:44.063Z,99930.81
2022-10-19T08:24:45.954Z,99938.58
2022-10-19T08:25:48.647Z,99933.34
2022-10-19T08:26:50.653Z,99934.41
2022-10-19T08:27:52.586Z,99938.35
2022-10-19T08:29:03.341Z,99930.13
2022-10-19T08:30:06.289Z,99936.20
2022-10-19T08:31:17.570Z,99931.83
2022-10-19T08:32:19.379Z,99933.65
2022-10-19T08:33:21.267Z,99930.69
2022-10-19T08:34:23.411Z,99940.34
2022-10-19T08:35:25.303Z,99928.88
2022-10-19T08:36:27.572Z,99938.55
2022-10-19T08:37:44.348Z,99938.34
2022-10-19T08:38:37.141Z,99931.23
2022-10-19T08:39:39.053Z,99936.23
2022-10-19T08:40:44.437Z,99930.45
2022-10-19T08:42:05.384Z,99937.98
2022-10-19T08:43:20.222Z,99938.45
2022-10-19T08:44:25.938Z,99933.27
2022-10-19T08:47:02.760Z,99929.64
2022-10-19T08:48:25.894Z,99943.33
2022-10-19T08:49:30.976Z,99940.36
2022-10-19T08:50:39.038Z,99930.94
2022-10-19T08:51:43.563Z,99940.38
2022-10-19T08:52:49.239Z,99929.02
2022-10-19T08:53:57.392Z,99936.58
2022-10-19T08:56:38.956Z,99936.48
2022-10-19T08:57:52.070Z,99941.06
2022-10-19T08:59:22.461Z,99943.38
2022-10-19T09:00:45.593Z,99943.94
2022-10-19T09:01:57.782Z,99944.65
2022-10-19T09:03:37.674Z,99939.55
2022-10-19T09:04:42.164Z,99936.80
2022-10-19T09:05:47.948Z,99933.92
2022-10-19T09:06:56.605Z,99932.20
2022-10-19T09:07:59.225Z,99936.48
2022-10-19T09:09:01.300Z,99934.14
2022-10-19T09:10:21.829Z,99934.88
2022-10-19T09:11:33.795Z,99933.72
2022-10-19T09:12:58.553Z,99927.00
2022-10-19T09:14:16.813Z,99921.38
2022-10-19T09:15:22.600Z,99929.45
2022-10-19T09:16:25.121Z,99898.96
2022-10-19T09:17:28.331Z,99940.82
2022-10-19T09:18:34.963Z,99942.22
2022-10-19T09:19:36.913Z,99943.83
2022-10-19T09:20:42.805Z,99940.30
2022-10-19T09:21:48.686Z,99940.50
2022-10-19T09:23:03.378Z,99939.66
2022-10-19T09:24:08.328Z,99933.80
2022-10-19T09:25:17.040Z,99937.83
2022-10-19T09:26:22.928Z,99942.51
2022-10-19T09:27:30.608Z,99922.66
2022-10-19T09:28:53.863Z,99938.26
2022-10-19T09:29:57.963Z,99940.50
2022-10-19T09:31:00.766Z,99945.71
2022-10-19T09:32:06.133Z,99939.97
2022-10-19T09:33:15.325Z,99935.28
2022-10-19T09:34:19.424Z,99941.44
2022-10-19T09:35:34.458Z,99939.52
2022-10-19T09:36:50.485Z,99934.52
2022-10-19T09:37:51.194Z,99935.45
2022-10-19T09:38:53.310Z,99934.01
2022-10-19T09:39:56.251Z,99927.95
2022-10-19T09:41:00.661Z,99938.91
2022-10-19T09:42:12.260Z,99933.08
2022-10-19T09:43:14.789Z,99931.55
2022-10-19T09:44:17.593Z,99930.17
2022-10-19T09:45:35.056Z,99929.86
2022-10-19T09:46:56.275Z,99934.97
2022-10-19T09:48:07.059Z,99935.50
2022-10-19T09:49:05.649Z,99926.80
2022-10-19T09:50:25.352Z,99921.27
2022-10-19T09:51:33.945Z,99926.91
2022-10-19T09:52:41.683Z,99918.30
2022-10-19T09:53:45.664Z,99912.35
2022-10-19T09:54:51.447Z,99907.67
2022-10-19T09:56:05.654Z,99912.14
2022-10-19T09:57:11.393Z,99909.69
2022-10-19T09:58:18.759Z,99910.32
2022-10-19T09:59:23.214Z,99915.95
2022-10-19T10:00:35.096Z,99903.17
2022-10-19T10:01:43.107Z,99901.28
2022-10-19T10:02:52.614Z,99898.92
2022-10-19T10:04:10.382Z,99897.94
2022-10-19T10:05:15.889Z,99895.20
2022-10-19T10:06:20.427Z,99904.27
2022-10-19T10:07:26.092Z,99895.77
2022-10-19T11:12:39.883Z,99857.75
2022-10-19T11:13:58.664Z,99858.52
2022-10-19T11:15:04.365Z,99865.38
2022-10-19T11:16:15.999Z,99857.62
2022-10-19T11:17:19.660Z,99857.06
2022-10-19T11:18:31.164Z,99858.75
2022-10-19T11:19:44.668Z,99848.63
2022-10-19T11:22:41.942Z,99837.40
2022-10-19T11:24:05.941Z,99851.30
2022-10-19T11:25:39.377Z,99838.55
2022-10-19T11:26:54.109Z,99831.14
2022-10-19T11:27:59.830Z,99831.32
2022-10-19T11:29:25.406Z,99833.89
2022-10-19T11:30:31.363Z,99824.66
2022-10-19T11:31:46.119Z,99818.52
2022-10-19T11:33:06.657Z,99806.29
2022-10-19T11:34:37.065Z,99806.25
2022-10-19T11:35:45.919Z,99805.27
2022-10-19T11:37:12.777Z,99795.31
2022-10-19T11:38:23.361Z,99802.14
2022-10-19T11:39:34.940Z,99794.17
2022-10-19T11:40:59.685Z,99803.61
2022-10-19T11:42:17.122Z,99784.97
2022-10-19T11:43:41.197Z,99786.67
2022-10-19T11:58:05.280Z,99780.74
2022-10-19T12:02:07.630Z,99780.53
2022-10-19T12:03:30.665Z,99779.66
2022-10-19T12:04:38.926Z,99777.23
2022-10-19T12:06:01.310Z,99765.38
2022-10-19T12:07:18.744Z,99767.80
2022-10-19T12:08:46.013Z,99769.48
2022-10-19T12:11:08.415Z,99767.20
2022-10-19T12:12:26.115Z,99765.38
2022-10-19T12:13:43.722Z,99762.72
2022-10-19T12:14:49.397Z,99750.71
2022-10-19T12:15:54.608Z,99754.84
2022-10-19T12:17:00.475Z,99758.34
2022-10-19T12:18:35.524Z,99751.45
2022-10-19T12:19:44.383Z,99769.70
2022-10-19T12:20:50.186Z,99764.36
2022-10-19T12:22:01.777Z,99764.55
2022-10-19T12:23:07.488Z,99776.15
2022-10-19T12:24:19.239Z,99763.34
2022-10-19T12:25:21.666Z,99765.05
2022-10-19T12:26:26.956Z,99779.04
2022-10-19T12:27:35.423Z,99769.00
2022-10-19T12:28:41.358Z,99773.14
2022-10-19T12:29:47.020Z,99772.05
2022-10-19T12:30:50.963Z,99765.42
2022-10-19T12:31:54.896Z,99760.82
2022-10-19T12:33:22.369Z,99771.70
2022-10-19T12:34:31.087Z,99764.02
2022-10-19T12:35:45.824Z,99764.75
2022-10-19T12:37:13.952Z,99764.78
2022-10-19T12:38:19.894Z,99770.11
2022-10-19T12:39:34.659Z,99766.26
2022-10-19T12:40:40.647Z,99771.47
2022-10-19T12:41:52.145Z,99767.47
2022-10-19T12:43:21.159Z,99760.96
2022-10-19T12:44:45.489Z,99762.32
2022-10-19T12:47:19.154Z,99751.56
2022-10-19T12:48:22.576Z,99751.92
2022-10-19T12:49:34.056Z,99746.23
2022-10-19T12:50:52.104Z,99752.27
2022-10-19T12:51:55.963Z,99752.03
2022-10-19T12:52:58.149Z,99735.94
2022-10-19T12:54:08.589Z,99749.13
2022-10-19T12:55:28.755Z,99740.13
2022-10-19T12:56:31.028Z,99745.94
2022-10-19T12:57:33.230Z,99748.13
2022-10-19T12:58:47.624Z,99741.48
2022-10-19T12:59:58.586Z,99740.36
2022-10-19T13:01:04.092Z,99743.66
2022-10-19T13:02:10.235Z,99742.91
2022-10-19T13:03:15.572Z,99739.54
2022-10-19T13:04:23.632Z,99744.27
2022-10-19T13:05:28.696Z,99746.15
2022-10-19T13:06:34.784Z,99736.02
2022-10-19T13:07:37.438Z,99736.48
2022-10-19T13:08:49.391Z,99733.36
2022-10-19T13:09:55.109Z,99731.30
2022-10-19T13:11:14.301Z,99728.03
2022-10-19T13:12:23.565Z,99733.45
2022-10-19T13:13:59.436Z,99738.02
2022-10-19T13:15:04.295Z,99733.94
2022-10-19T13:16:27.454Z,99732.81
2022-10-19T13:17:38.744Z,99740.03
2022-10-19T13:19:15.196Z,99745.62
2022-10-19T13:21:44.113Z,99735.70
2022-10-19T13:22:49.194Z,99735.55
2022-10-19T13:23:51.321Z,99729.89
2022-10-19T13:25:18.545Z,99728.64
2022-10-19T13:26:33.480Z,99728.64
2022-10-19T13:27:37.697Z,99733.96
2022-10-19T13:28:43.659Z,99732.78
2022-10-19T13:29:45.697Z,99728.21
2022-10-19T13:30:51.544Z,99722.59
2022-10-19T13:31:53.862Z,99722.59
2022-10-19T13:32:55.854Z,99722.33
2022-10-19T13:33:58.551Z,99718.75
2022-10-19T13:35:27.460Z,99717.91
2022-10-19T13:36:30.873Z,99723.84
2022-10-19T13:37:34.812Z,99723.43
2022-10-19T13:38:43.892Z,99719.06
2022-10-19T13:39:47.239Z,99718.00
2022-10-19T13:40:52.986Z,99717.01
2022-10-19T13:41:55.674Z,99713.02
2022-10-19T13:42:58.286Z,99712.06
2022-10-19T13:44:10.124Z,99712.36
2022-10-19T13:45:24.957Z,99715.14
2022-10-19T13:46:34.068Z,99709.86
2022-10-19T13:47:39.900Z,99712.18
2022-10-19T13:49:02.264Z,99714.09
2022-10-19T13:50:08.066Z,99714.31
2022-10-19T13:52:44.867Z,99711.16
2022-10-19T13:54:07.535Z,99710.27
2022-10-19T13:55:22.497Z,99708.11
2022-10-19T13:57:02.572Z,99716.70
2022-10-19T13:58:24.943Z,99707.16
2022-10-19T13:59:49.340Z,99710.89
2022-10-19T14:01:12.022Z,99704.34
2022-10-19T14:02:36.432Z,99711.45
2022-10-19T14:03:57.929Z,99704.23
2022-10-19T14:05:12.863Z,99701.42
2022-10-19T14:06:28.360Z,99706.14
2022-10-19T14:07:42.401Z,99703.14
2022-10-19T14:09:00.281Z,99698.27
2022-10-19T14:11:37.085Z,99695.92
2022-10-19T14:12:41.989Z,99698.77
2022-10-19T14:13:45.145Z,99697.93
2022-10-19T14:14:47.326Z,99689.84
2022-10-19T14:15:52.157Z,99705.69
2022-10-19T14:17:04.069Z,99695.88
2022-10-19T14:18:22.579Z,99693.17
2022-10-19T14:19:31.284Z,99695.50
2022-10-19T14:20:36.804Z,99686.34
2022-10-19T14:21:38.806Z,99694.81
2022-10-19T14:22:40.697Z,99693.94
2022-10-19T14:23:42.898Z,99688.73
2022-10-19T14:24:45.282Z,99685.42
2022-10-19T14:25:53.280Z,99681.59
2022-10-19T14:26:58.111Z,99682.54
2022-10-19T14:28:03.005Z,99680.22
2022-10-19T14:29:05.599Z,99675.09
2022-10-19T14:30:23.465Z,99670.84
2022-10-19T14:31:29.126Z,99671.91
2022-10-19T14:32:33.171Z,99673.84
2022-10-19T14:33:41.284Z,99672.62
2022-10-19T14:34:45.998Z,99672.20
2022-10-19T14:35:52.017Z,99672.31
2022-10-19T14:36:54.376Z,99670.07
2022-10-19T14:37:57.366Z,99671.36
2022-10-19T14:38:59.605Z,99671.36
2022-10-19T14:40:08.500Z,99672.56
2022-10-19T14:41:29.698Z,99670.69
2022-10-19T14:42:41.059Z,99671.75
2022-10-19T14:43:42.994Z,99669.32
2022-10-19T14:44:44.989Z,99670.91
2022-10-19T14:46:08.912Z,99667.20
2022-10-19T14:47:24.505Z,99664.45
2022-10-19T14:48:26.574Z,99665.98
2022-10-19T14:49:28.848Z,99669.37
2022-10-19T14:50:52.924Z,99666.20
2022-10-19T14:52:01.652Z,99665.87
2022-10-19T14:54:21.085Z,99666.55